Woodville, New York
Current Conditions -  °F | °C
As of 5:41 AM on Thursday 23 Oct 2014 (Local Time) from KART Reporting Station
Broken Clouds Broken Clouds  
Wind Chill:   Ceiling: 3900
Heat Index:   Visibility: 10mi
Dew Point:   Wind: 13mph
Humidity: 65%   Direction: 30°NNE
Pressure: 30.06"   Gusts: NA
Location:  43.8534°N, 76.251°W
Report Text: KART 230941Z AUTO 03011KT 10SM FEW018 SCT023 BKN039 07/01 A3006 RMK AO2 T00720011
Loading
Personal Weather Stations






























Interactive Weather Map
Tropical Storm Tracking
New forecast layout! Learn more

10-Day Weather Forecast

Advertisements
Track Severe Weather on mobile